sensor_id;sensor_type;location;lat;lon;timestamp;P1;durP1;ratioP1;P2;durP2;ratioP2
60054;SDS011;45930;53.514;55.904;2023-07-31T00:00:49;15.60;;;12.98;;
60054;SDS011;45930;53.514;55.904;2023-07-31T00:01:50;15.73;;;11.98;;
60054;SDS011;45930;53.514;55.904;2023-07-31T00:02:51;13.48;;;11.52;;
60054;SDS011;45930;53.514;55.904;2023-07-31T00:03:53;15.40;;;11.40;;
60054;SDS011;45930;53.514;55.904;2023-07-31T00:04:53;16.23;;;11.20;;
60054;SDS011;45930;53.514;55.904;2023-07-31T00:05:54;16.95;;;12.43;;
60054;SDS011;45930;53.514;55.904;2023-07-31T00:06:55;16.85;;;12.52;;
60054;SDS011;45930;53.514;55.904;2023-07-31T00:07:55;15.57;;;11.57;;
60054;SDS011;45930;53.514;55.904;2023-07-31T00:08:57;17.05;;;12.45;;
60054;SDS011;45930;53.514;55.904;2023-07-31T00:09:58;15.80;;;11.95;;
60054;SDS011;45930;53.514;55.904;2023-07-31T00:10:58;23.00;;;12.25;;
60054;SDS011;45930;53.514;55.904;2023-07-31T00:11:59;16.58;;;12.85;;
60054;SDS011;45930;53.514;55.904;2023-07-31T00:13:00;15.55;;;12.57;;
60054;SDS011;45930;53.514;55.904;2023-07-31T00:14:01;18.35;;;12.75;;
60054;SDS011;45930;53.514;55.904;2023-07-31T00:15:02;17.30;;;13.10;;
60054;SDS011;45930;53.514;55.904;2023-07-31T00:16:06;14.48;;;12.73;;
60054;SDS011;45930;53.514;55.904;2023-07-31T00:17:06;17.33;;;13.65;;
60054;SDS011;45930;53.514;55.904;2023-07-31T00:18:07;14.45;;;12.93;;
60054;SDS011;45930;53.514;55.904;2023-07-31T00:19:08;16.45;;;13.35;;
60054;SDS011;45930;53.514;55.904;2023-07-31T00:20:09;16.02;;;12.20;;
60054;SDS011;45930;53.514;55.904;2023-07-31T00:21:10;18.42;;;12.68;;
60054;SDS011;45930;53.514;55.904;2023-07-31T00:22:11;17.00;;;13.38;;
60054;SDS011;45930;53.514;55.904;2023-07-31T00:23:12;22.75;;;13.68;;
60054;SDS011;45930;53.514;55.904;2023-07-31T00:24:13;18.55;;;13.02;;
60054;SDS011;45930;53.514;55.904;2023-07-31T00:25:14;16.55;;;12.18;;
60054;SDS011;45930;53.514;55.904;2023-07-31T00:26:15;15.23;;;11.93;;
60054;SDS011;45930;53.514;55.904;2023-07-31T00:27:16;17.73;;;13.10;;
60054;SDS011;45930;53.514;55.904;2023-07-31T00:28:16;19.77;;;13.43;;
60054;SDS011;45930;53.514;55.904;2023-07-31T00:29:17;15.15;;;11.75;;
60054;SDS011;45930;53.514;55.904;2023-07-31T00:30:18;15.88;;;12.50;;
60054;SDS011;45930;53.514;55.904;2023-07-31T00:31:19;18.55;;;13.05;;
60054;SDS011;45930;53.514;55.904;2023-07-31T00:32:20;18.40;;;13.15;;
60054;SDS011;45930;53.514;55.904;2023-07-31T00:33:21;17.48;;;14.00;;
60054;SDS011;45930;53.514;55.904;2023-07-31T00:34:22;18.90;;;13.32;;
60054;SDS011;45930;53.514;55.904;2023-07-31T00:35:22;17.98;;;12.25;;
60054;SDS011;45930;53.514;55.904;2023-07-31T00:36:23;16.35;;;12.15;;
60054;SDS011;45930;53.514;55.904;2023-07-31T00:37:24;16.92;;;13.10;;
60054;SDS011;45930;53.514;55.904;2023-07-31T00:38:25;18.70;;;13.43;;
60054;SDS011;45930;53.514;55.904;2023-07-31T00:39:26;18.58;;;13.30;;
60054;SDS011;45930;53.514;55.904;2023-07-31T00:40:26;14.30;;;12.13;;
60054;SDS011;45930;53.514;55.904;2023-07-31T00:41:27;18.05;;;12.70;;
60054;SDS011;45930;53.514;55.904;2023-07-31T00:42:28;17.02;;;13.32;;
60054;SDS011;45930;53.514;55.904;2023-07-31T00:43:29;16.65;;;12.80;;
60054;SDS011;45930;53.514;55.904;2023-07-31T00:44:29;16.70;;;13.32;;
60054;SDS011;45930;53.514;55.904;2023-07-31T00:45:30;16.40;;;12.70;;
60054;SDS011;45930;53.514;55.904;2023-07-31T00:46:32;18.13;;;12.60;;
60054;SDS011;45930;53.514;55.904;2023-07-31T00:47:32;16.40;;;13.23;;
60054;SDS011;45930;53.514;55.904;2023-07-31T00:48:34;15.88;;;12.88;;
60054;SDS011;45930;53.514;55.904;2023-07-31T00:49:36;25.23;;;13.43;;
60054;SDS011;45930;53.514;55.904;2023-07-31T00:50:37;18.45;;;13.32;;
60054;SDS011;45930;53.514;55.904;2023-07-31T00:51:39;17.40;;;12.68;;
60054;SDS011;45930;53.514;55.904;2023-07-31T00:52:40;19.33;;;13.05;;
60054;SDS011;45930;53.514;55.904;2023-07-31T00:53:40;19.35;;;14.10;;
60054;SDS011;45930;53.514;55.904;2023-07-31T00:54:42;19.52;;;13.82;;
60054;SDS011;45930;53.514;55.904;2023-07-31T00:55:43;20.23;;;13.50;;
60054;SDS011;45930;53.514;55.904;2023-07-31T00:56:45;19.17;;;13.57;;
60054;SDS011;45930;53.514;55.904;2023-07-31T00:57:49;18.60;;;12.57;;
60054;SDS011;45930;53.514;55.904;2023-07-31T00:58:50;18.83;;;13.90;;
60054;SDS011;45930;53.514;55.904;2023-07-31T00:59:51;24.45;;;13.18;;
60054;SDS011;45930;53.514;55.904;2023-07-31T01:00:52;16.25;;;13.73;;
60054;SDS011;45930;53.514;55.904;2023-07-31T01:01:53;18.38;;;13.45;;
60054;SDS011;45930;53.514;55.904;2023-07-31T01:02:54;18.10;;;14.23;;
60054;SDS011;45930;53.514;55.904;2023-07-31T01:03:55;16.73;;;12.82;;
60054;SDS011;45930;53.514;55.904;2023-07-31T01:04:56;17.42;;;13.52;;
60054;SDS011;45930;53.514;55.904;2023-07-31T01:07:19;20.90;;;13.77;;
60054;SDS011;45930;53.514;55.904;2023-07-31T01:10:05;19.98;;;13.82;;
60054;SDS011;45930;53.514;55.904;2023-07-31T01:11:11;17.23;;;13.23;;
60054;SDS011;45930;53.514;55.904;2023-07-31T01:13:17;17.63;;;12.88;;
60054;SDS011;45930;53.514;55.904;2023-07-31T01:14:19;19.08;;;14.50;;
60054;SDS011;45930;53.514;55.904;2023-07-31T01:15:20;21.48;;;13.68;;
60054;SDS011;45930;53.514;55.904;2023-07-31T01:16:21;21.38;;;14.15;;
60054;SDS011;45930;53.514;55.904;2023-07-31T01:17:22;17.35;;;12.85;;
60054;SDS011;45930;53.514;55.904;2023-07-31T01:18:23;19.70;;;14.40;;
60054;SDS011;45930;53.514;55.904;2023-07-31T01:19:24;19.65;;;13.50;;
60054;SDS011;45930;53.514;55.904;2023-07-31T01:20:30;22.02;;;14.93;;
60054;SDS011;45930;53.514;55.904;2023-07-31T01:24:22;22.02;;;15.70;;
60054;SDS011;45930;53.514;55.904;2023-07-31T01:27:08;17.48;;;13.35;;
60054;SDS011;45930;53.514;55.904;2023-07-31T01:28:13;20.92;;;13.65;;
60054;SDS011;45930;53.514;55.904;2023-07-31T01:29:28;22.38;;;13.65;;
60054;SDS011;45930;53.514;55.904;2023-07-31T01:30:40;17.30;;;13.43;;
60054;SDS011;45930;53.514;55.904;2023-07-31T01:31:45;22.02;;;14.25;;
60054;SDS011;45930;53.514;55.904;2023-07-31T01:32:50;18.10;;;14.35;;
60054;SDS011;45930;53.514;55.904;2023-07-31T01:33:53;22.30;;;14.73;;
60054;SDS011;45930;53.514;55.904;2023-07-31T01:34:57;23.95;;;15.43;;
60054;SDS011;45930;53.514;55.904;2023-07-31T01:35:59;21.80;;;14.23;;
60054;SDS011;45930;53.514;55.904;2023-07-31T01:37:01;22.13;;;15.85;;
60054;SDS011;45930;53.514;55.904;2023-07-31T01:38:02;25.77;;;18.80;;
60054;SDS011;45930;53.514;55.904;2023-07-31T01:39:03;24.13;;;18.25;;
60054;SDS011;45930;53.514;55.904;2023-07-31T01:40:04;22.88;;;16.83;;
60054;SDS011;45930;53.514;55.904;2023-07-31T01:41:07;24.48;;;16.90;;
60054;SDS011;45930;53.514;55.904;2023-07-31T01:42:08;26.35;;;16.40;;
60054;SDS011;45930;53.514;55.904;2023-07-31T01:43:09;24.42;;;17.55;;
60054;SDS011;45930;53.514;55.904;2023-07-31T01:44:09;26.83;;;16.77;;
60054;SDS011;45930;53.514;55.904;2023-07-31T01:45:10;23.55;;;15.98;;
60054;SDS011;45930;53.514;55.904;2023-07-31T01:46:12;24.90;;;17.13;;
60054;SDS011;45930;53.514;55.904;2023-07-31T01:47:12;30.83;;;18.27;;
60054;SDS011;45930;53.514;55.904;2023-07-31T01:48:13;22.92;;;17.88;;
60054;SDS011;45930;53.514;55.904;2023-07-31T01:49:14;27.30;;;19.45;;
60054;SDS011;45930;53.514;55.904;2023-07-31T01:50:15;25.08;;;17.55;;
60054;SDS011;45930;53.514;55.904;2023-07-31T01:51:16;25.00;;;18.13;;
60054;SDS011;45930;53.514;55.904;2023-07-31T01:52:17;26.33;;;17.55;;
60054;SDS011;45930;53.514;55.904;2023-07-31T01:53:17;27.88;;;18.35;;
60054;SDS011;45930;53.514;55.904;2023-07-31T01:54:18;71.25;;;21.35;;
60054;SDS011;45930;53.514;55.904;2023-07-31T01:55:19;28.15;;;20.13;;
60054;SDS011;45930;53.514;55.904;2023-07-31T01:56:20;28.67;;;19.55;;
60054;SDS011;45930;53.514;55.904;2023-07-31T01:57:21;31.88;;;20.30;;
60054;SDS011;45930;53.514;55.904;2023-07-31T01:58:21;24.38;;;18.58;;
60054;SDS011;45930;53.514;55.904;2023-07-31T01:59:22;25.88;;;19.25;;
60054;SDS011;45930;53.514;55.904;2023-07-31T02:00:23;29.77;;;20.10;;
60054;SDS011;45930;53.514;55.904;2023-07-31T02:01:24;27.13;;;19.38;;
60054;SDS011;45930;53.514;55.904;2023-07-31T02:02:24;31.23;;;20.98;;
60054;SDS011;45930;53.514;55.904;2023-07-31T02:03:25;29.92;;;19.02;;
60054;SDS011;45930;53.514;55.904;2023-07-31T02:04:26;27.48;;;19.63;;
60054;SDS011;45930;53.514;55.904;2023-07-31T02:05:27;26.50;;;19.13;;
60054;SDS011;45930;53.514;55.904;2023-07-31T02:06:27;28.88;;;19.58;;
60054;SDS011;45930;53.514;55.904;2023-07-31T02:07:29;30.38;;;21.13;;
60054;SDS011;45930;53.514;55.904;2023-07-31T02:08:30;25.35;;;20.90;;
60054;SDS011;45930;53.514;55.904;2023-07-31T02:09:30;29.73;;;21.67;;
60054;SDS011;45930;53.514;55.904;2023-07-31T02:10:31;28.73;;;20.17;;
60054;SDS011;45930;53.514;55.904;2023-07-31T02:11:32;32.40;;;21.63;;
60054;SDS011;45930;53.514;55.904;2023-07-31T02:12:33;32.42;;;20.67;;
60054;SDS011;45930;53.514;55.904;2023-07-31T02:13:35;35.28;;;20.48;;
60054;SDS011;45930;53.514;55.904;2023-07-31T02:14:36;33.45;;;22.02;;
60054;SDS011;45930;53.514;55.904;2023-07-31T02:15:37;30.63;;;21.67;;
60054;SDS011;45930;53.514;55.904;2023-07-31T02:16:38;29.33;;;20.45;;
60054;SDS011;45930;53.514;55.904;2023-07-31T02:17:39;31.40;;;21.98;;
60054;SDS011;45930;53.514;55.904;2023-07-31T02:18:39;27.90;;;21.35;;
60054;SDS011;45930;53.514;55.904;2023-07-31T02:19:40;30.60;;;21.02;;
60054;SDS011;45930;53.514;55.904;2023-07-31T02:20:41;29.73;;;21.65;;
60054;SDS011;45930;53.514;55.904;2023-07-31T02:21:42;33.67;;;21.50;;
60054;SDS011;45930;53.514;55.904;2023-07-31T02:22:43;30.83;;;20.80;;
60054;SDS011;45930;53.514;55.904;2023-07-31T02:23:44;29.15;;;21.83;;
60054;SDS011;45930;53.514;55.904;2023-07-31T02:24:44;32.13;;;22.77;;
60054;SDS011;45930;53.514;55.904;2023-07-31T02:25:45;32.83;;;23.08;;
60054;SDS011;45930;53.514;55.904;2023-07-31T02:26:46;30.38;;;21.55;;
60054;SDS011;45930;53.514;55.904;2023-07-31T02:27:47;29.77;;;22.77;;
60054;SDS011;45930;53.514;55.904;2023-07-31T02:28:48;36.92;;;23.23;;
60054;SDS011;45930;53.514;55.904;2023-07-31T02:29:49;36.00;;;25.95;;
60054;SDS011;45930;53.514;55.904;2023-07-31T02:30:50;38.05;;;24.10;;
60054;SDS011;45930;53.514;55.904;2023-07-31T02:31:52;33.75;;;24.63;;
60054;SDS011;45930;53.514;55.904;2023-07-31T02:32:53;40.22;;;23.15;;
60054;SDS011;45930;53.514;55.904;2023-07-31T02:33:54;33.67;;;23.38;;
60054;SDS011;45930;53.514;55.904;2023-07-31T02:34:54;34.35;;;20.80;;
60054;SDS011;45930;53.514;55.904;2023-07-31T02:35:55;26.50;;;17.85;;
60054;SDS011;45930;53.514;55.904;2023-07-31T02:36:56;28.77;;;18.42;;
60054;SDS011;45930;53.514;55.904;2023-07-31T02:37:57;26.55;;;18.02;;
60054;SDS011;45930;53.514;55.904;2023-07-31T02:38:57;23.25;;;15.93;;
60054;SDS011;45930;53.514;55.904;2023-07-31T02:39:58;19.65;;;12.32;;
60054;SDS011;45930;53.514;55.904;2023-07-31T02:40:59;17.75;;;11.65;;
60054;SDS011;45930;53.514;55.904;2023-07-31T02:42:00;14.75;;;10.10;;
60054;SDS011;45930;53.514;55.904;2023-07-31T02:43:01;14.35;;;9.18;;
60054;SDS011;45930;53.514;55.904;2023-07-31T02:44:02;17.20;;;9.73;;
60054;SDS011;45930;53.514;55.904;2023-07-31T02:45:03;13.82;;;10.25;;
60054;SDS011;45930;53.514;55.904;2023-07-31T02:46:07;14.15;;;9.38;;
60054;SDS011;45930;53.514;55.904;2023-07-31T02:47:08;14.90;;;10.50;;
60054;SDS011;45930;53.514;55.904;2023-07-31T02:48:09;12.63;;;9.20;;
60054;SDS011;45930;53.514;55.904;2023-07-31T02:49:10;15.73;;;10.50;;
60054;SDS011;45930;53.514;55.904;2023-07-31T02:50:10;15.45;;;9.18;;
60054;SDS011;45930;53.514;55.904;2023-07-31T02:51:11;15.10;;;9.85;;
60054;SDS011;45930;53.514;55.904;2023-07-31T02:52:12;15.68;;;9.82;;
60054;SDS011;45930;53.514;55.904;2023-07-31T02:53:13;15.20;;;9.27;;
60054;SDS011;45930;53.514;55.904;2023-07-31T02:54:14;15.82;;;9.20;;
60054;SDS011;45930;53.514;55.904;2023-07-31T02:55:14;14.18;;;9.52;;
60054;SDS011;45930;53.514;55.904;2023-07-31T02:56:15;16.48;;;10.38;;
60054;SDS011;45930;53.514;55.904;2023-07-31T02:57:16;14.65;;;10.18;;
60054;SDS011;45930;53.514;55.904;2023-07-31T02:58:17;13.75;;;10.40;;
60054;SDS011;45930;53.514;55.904;2023-07-31T02:59:18;12.55;;;9.50;;
60054;SDS011;45930;53.514;55.904;2023-07-31T03:00:19;16.13;;;10.70;;
60054;SDS011;45930;53.514;55.904;2023-07-31T03:01:20;15.02;;;10.30;;
60054;SDS011;45930;53.514;55.904;2023-07-31T03:02:20;15.63;;;10.20;;
60054;SDS011;45930;53.514;55.904;2023-07-31T03:03:21;14.07;;;9.35;;
60054;SDS011;45930;53.514;55.904;2023-07-31T03:04:22;14.35;;;10.30;;
60054;SDS011;45930;53.514;55.904;2023-07-31T03:05:23;15.70;;;9.77;;
60054;SDS011;45930;53.514;55.904;2023-07-31T03:06:24;14.60;;;10.90;;
60054;SDS011;45930;53.514;55.904;2023-07-31T03:07:24;18.48;;;10.00;;
60054;SDS011;45930;53.514;55.904;2023-07-31T03:08:25;15.57;;;10.68;;
60054;SDS011;45930;53.514;55.904;2023-07-31T03:09:26;14.43;;;9.65;;
60054;SDS011;45930;53.514;55.904;2023-07-31T03:10:27;17.45;;;10.98;;
60054;SDS011;45930;53.514;55.904;2023-07-31T03:11:28;13.40;;;9.60;;
60054;SDS011;45930;53.514;55.904;2023-07-31T03:12:29;20.90;;;10.55;;
60054;SDS011;45930;53.514;55.904;2023-07-31T03:13:29;12.00;;;9.88;;
60054;SDS011;45930;53.514;55.904;2023-07-31T03:14:30;15.02;;;10.20;;
60054;SDS011;45930;53.514;55.904;2023-07-31T03:15:31;13.40;;;10.57;;
60054;SDS011;45930;53.514;55.904;2023-07-31T03:16:32;18.63;;;9.77;;
60054;SDS011;45930;53.514;55.904;2023-07-31T03:17:33;15.32;;;10.25;;
60054;SDS011;45930;53.514;55.904;2023-07-31T03:18:34;14.60;;;9.98;;
60054;SDS011;45930;53.514;55.904;2023-07-31T03:19:34;13.50;;;10.07;;
60054;SDS011;45930;53.514;55.904;2023-07-31T03:20:35;12.57;;;9.15;;
60054;SDS011;45930;53.514;55.904;2023-07-31T03:21:36;16.77;;;9.80;;
60054;SDS011;45930;53.514;55.904;2023-07-31T03:22:36;15.48;;;10.20;;
60054;SDS011;45930;53.514;55.904;2023-07-31T03:23:38;13.85;;;10.55;;
60054;SDS011;45930;53.514;55.904;2023-07-31T03:24:39;13.90;;;10.20;;
60054;SDS011;45930;53.514;55.904;2023-07-31T03:25:41;17.60;;;11.48;;
60054;SDS011;45930;53.514;55.904;2023-07-31T03:26:55;16.23;;;10.48;;
60054;SDS011;45930;53.514;55.904;2023-07-31T03:27:56;19.23;;;11.07;;
60054;SDS011;45930;53.514;55.904;2023-07-31T03:28:57;13.60;;;10.25;;
60054;SDS011;45930;53.514;55.904;2023-07-31T03:29:58;12.00;;;9.80;;
60054;SDS011;45930;53.514;55.904;2023-07-31T03:30:59;14.80;;;10.45;;
60054;SDS011;45930;53.514;55.904;2023-07-31T03:32:00;14.85;;;10.10;;
60054;SDS011;45930;53.514;55.904;2023-07-31T03:33:01;18.10;;;10.40;;
60054;SDS011;45930;53.514;55.904;2023-07-31T03:34:02;15.80;;;10.48;;
60054;SDS011;45930;53.514;55.904;2023-07-31T03:35:03;14.32;;;10.55;;
60054;SDS011;45930;53.514;55.904;2023-07-31T03:36:05;15.77;;;11.20;;
60054;SDS011;45930;53.514;55.904;2023-07-31T03:37:06;17.80;;;9.98;;
60054;SDS011;45930;53.514;55.904;2023-07-31T03:38:09;18.48;;;10.55;;
60054;SDS011;45930;53.514;55.904;2023-07-31T03:39:10;19.75;;;11.32;;
60054;SDS011;45930;53.514;55.904;2023-07-31T03:40:11;15.13;;;11.18;;
60054;SDS011;45930;53.514;55.904;2023-07-31T03:41:12;13.38;;;9.93;;
60054;SDS011;45930;53.514;55.904;2023-07-31T03:42:12;14.90;;;9.68;;
60054;SDS011;45930;53.514;55.904;2023-07-31T03:43:13;14.50;;;10.38;;
60054;SDS011;45930;53.514;55.904;2023-07-31T03:44:15;14.43;;;10.63;;
60054;SDS011;45930;53.514;55.904;2023-07-31T03:45:16;18.15;;;10.23;;
60054;SDS011;45930;53.514;55.904;2023-07-31T03:46:17;14.88;;;10.10;;
60054;SDS011;45930;53.514;55.904;2023-07-31T03:47:17;16.38;;;10.10;;
60054;SDS011;45930;53.514;55.904;2023-07-31T03:48:18;14.27;;;10.77;;
60054;SDS011;45930;53.514;55.904;2023-07-31T03:49:19;13.07;;;9.80;;
60054;SDS011;45930;53.514;55.904;2023-07-31T03:50:20;14.82;;;9.63;;
60054;SDS011;45930;53.514;55.904;2023-07-31T03:51:21;15.75;;;10.95;;
60054;SDS011;45930;53.514;55.904;2023-07-31T03:52:22;17.10;;;9.48;;
60054;SDS011;45930;53.514;55.904;2023-07-31T03:53:23;13.55;;;9.88;;
60054;SDS011;45930;53.514;55.904;2023-07-31T03:54:23;16.38;;;9.95;;
60054;SDS011;45930;53.514;55.904;2023-07-31T03:55:24;14.23;;;9.82;;
60054;SDS011;45930;53.514;55.904;2023-07-31T03:56:25;13.15;;;9.25;;
60054;SDS011;45930;53.514;55.904;2023-07-31T03:57:26;13.30;;;8.82;;
60054;SDS011;45930;53.514;55.904;2023-07-31T03:58:27;13.85;;;9.20;;
60054;SDS011;45930;53.514;55.904;2023-07-31T03:59:28;13.57;;;8.77;;
60054;SDS011;45930;53.514;55.904;2023-07-31T04:00:28;21.92;;;9.13;;
60054;SDS011;45930;53.514;55.904;2023-07-31T04:01:29;13.23;;;8.13;;
60054;SDS011;45930;53.514;55.904;2023-07-31T04:02:30;13.32;;;8.65;;
60054;SDS011;45930;53.514;55.904;2023-07-31T04:03:31;12.48;;;8.02;;
60054;SDS011;45930;53.514;55.904;2023-07-31T04:04:32;11.75;;;9.30;;
60054;SDS011;45930;53.514;55.904;2023-07-31T04:05:32;11.73;;;8.40;;
60054;SDS011;45930;53.514;55.904;2023-07-31T04:06:34;13.82;;;8.63;;
60054;SDS011;45930;53.514;55.904;2023-07-31T04:07:34;14.02;;;8.13;;
60054;SDS011;45930;53.514;55.904;2023-07-31T04:08:35;10.40;;;7.93;;
60054;SDS011;45930;53.514;55.904;2023-07-31T04:09:36;11.98;;;8.63;;
60054;SDS011;45930;53.514;55.904;2023-07-31T04:10:37;16.80;;;8.25;;
60054;SDS011;45930;53.514;55.904;2023-07-31T04:11:38;16.35;;;8.25;;
60054;SDS011;45930;53.514;55.904;2023-07-31T04:12:39;11.77;;;8.18;;
60054;SDS011;45930;53.514;55.904;2023-07-31T04:13:40;12.82;;;8.02;;
60054;SDS011;45930;53.514;55.904;2023-07-31T04:14:40;12.68;;;8.52;;
60054;SDS011;45930;53.514;55.904;2023-07-31T04:15:41;10.70;;;8.00;;
60054;SDS011;45930;53.514;55.904;2023-07-31T04:16:42;11.18;;;8.35;;
60054;SDS011;45930;53.514;55.904;2023-07-31T04:17:43;11.45;;;8.98;;
60054;SDS011;45930;53.514;55.904;2023-07-31T04:18:44;15.98;;;8.30;;
60054;SDS011;45930;53.514;55.904;2023-07-31T04:19:45;11.00;;;7.80;;
60054;SDS011;45930;53.514;55.904;2023-07-31T04:20:45;11.75;;;7.88;;
60054;SDS011;45930;53.514;55.904;2023-07-31T04:21:46;18.13;;;9.32;;
60054;SDS011;45930;53.514;55.904;2023-07-31T04:22:47;10.63;;;8.18;;
60054;SDS011;45930;53.514;55.904;2023-07-31T04:23:48;12.32;;;9.18;;
60054;SDS011;45930;53.514;55.904;2023-07-31T04:24:49;15.35;;;9.52;;
60054;SDS011;45930;53.514;55.904;2023-07-31T04:25:50;13.07;;;8.32;;
60054;SDS011;45930;53.514;55.904;2023-07-31T04:26:51;13.30;;;7.90;;
60054;SDS011;45930;53.514;55.904;2023-07-31T04:27:53;13.52;;;8.88;;
60054;SDS011;45930;53.514;55.904;2023-07-31T04:28:54;13.90;;;8.30;;
60054;SDS011;45930;53.514;55.904;2023-07-31T04:29:55;12.95;;;9.00;;
60054;SDS011;45930;53.514;55.904;2023-07-31T04:30:55;11.88;;;7.93;;
60054;SDS011;45930;53.514;55.904;2023-07-31T04:31:56;9.93;;;6.97;;
60054;SDS011;45930;53.514;55.904;2023-07-31T04:32:57;11.98;;;7.63;;
60054;SDS011;45930;53.514;55.904;2023-07-31T04:33:58;15.13;;;8.40;;
60054;SDS011;45930;53.514;55.904;2023-07-31T04:34:59;13.13;;;8.38;;
60054;SDS011;45930;53.514;55.904;2023-07-31T04:36:00;12.82;;;8.02;;
60054;SDS011;45930;53.514;55.904;2023-07-31T04:37:00;13.18;;;8.32;;
60054;SDS011;45930;53.514;55.904;2023-07-31T04:38:02;9.93;;;7.40;;
60054;SDS011;45930;53.514;55.904;2023-07-31T04:39:03;13.68;;;8.00;;
60054;SDS011;45930;53.514;55.904;2023-07-31T04:40:04;14.98;;;8.25;;
60054;SDS011;45930;53.514;55.904;2023-07-31T04:41:05;12.77;;;7.55;;
60054;SDS011;45930;53.514;55.904;2023-07-31T04:42:06;11.38;;;7.22;;
60054;SDS011;45930;53.514;55.904;2023-07-31T04:43:07;11.95;;;7.63;;
60054;SDS011;45930;53.514;55.904;2023-07-31T04:44:08;10.15;;;8.10;;
60054;SDS011;45930;53.514;55.904;2023-07-31T04:45:11;10.20;;;7.45;;
60054;SDS011;45930;53.514;55.904;2023-07-31T04:46:12;12.43;;;7.03;;
60054;SDS011;45930;53.514;55.904;2023-07-31T04:47:13;10.02;;;6.68;;
60054;SDS011;45930;53.514;55.904;2023-07-31T04:48:14;10.35;;;6.78;;
60054;SDS011;45930;53.514;55.904;2023-07-31T04:49:15;9.88;;;6.57;;
60054;SDS011;45930;53.514;55.904;2023-07-31T04:50:15;9.73;;;6.63;;
60054;SDS011;45930;53.514;55.904;2023-07-31T04:51:16;10.98;;;6.72;;
60054;SDS011;45930;53.514;55.904;2023-07-31T04:52:17;9.27;;;6.47;;
60054;SDS011;45930;53.514;55.904;2023-07-31T04:53:18;9.18;;;6.18;;
60054;SDS011;45930;53.514;55.904;2023-07-31T04:54:19;7.68;;;5.78;;
60054;SDS011;45930;53.514;55.904;2023-07-31T04:55:20;9.30;;;6.10;;
60054;SDS011;45930;53.514;55.904;2023-07-31T04:56:21;8.90;;;5.40;;
60054;SDS011;45930;53.514;55.904;2023-07-31T04:57:21;12.88;;;5.90;;
60054;SDS011;45930;53.514;55.904;2023-07-31T04:58:22;8.02;;;6.15;;
60054;SDS011;45930;53.514;55.904;2023-07-31T04:59:23;8.65;;;5.88;;
60054;SDS011;45930;53.514;55.904;2023-07-31T05:00:24;8.07;;;6.03;;
60054;SDS011;45930;53.514;55.904;2023-07-31T05:01:25;8.25;;;5.97;;
60054;SDS011;45930;53.514;55.904;2023-07-31T05:02:26;8.98;;;5.15;;
60054;SDS011;45930;53.514;55.904;2023-07-31T05:03:26;8.73;;;5.60;;
60054;SDS011;45930;53.514;55.904;2023-07-31T05:04:27;12.07;;;5.72;;
60054;SDS011;45930;53.514;55.904;2023-07-31T05:05:28;8.15;;;5.75;;
60054;SDS011;45930;53.514;55.904;2023-07-31T05:06:29;8.98;;;5.07;;
60054;SDS011;45930;53.514;55.904;2023-07-31T05:07:30;10.10;;;5.53;;
60054;SDS011;45930;53.514;55.904;2023-07-31T05:08:30;10.65;;;5.68;;
60054;SDS011;45930;53.514;55.904;2023-07-31T05:09:31;6.53;;;5.13;;
60054;SDS011;45930;53.514;55.904;2023-07-31T05:10:32;8.15;;;5.05;;
60054;SDS011;45930;53.514;55.904;2023-07-31T05:11:33;8.77;;;5.45;;
60054;SDS011;45930;53.514;55.904;2023-07-31T05:12:34;7.50;;;5.40;;
60054;SDS011;45930;53.514;55.904;2023-07-31T05:13:34;6.55;;;4.80;;
60054;SDS011;45930;53.514;55.904;2023-07-31T05:14:35;7.43;;;4.88;;
60054;SDS011;45930;53.514;55.904;2023-07-31T05:15:36;8.00;;;5.72;;
60054;SDS011;45930;53.514;55.904;2023-07-31T05:16:37;8.20;;;5.63;;
60054;SDS011;45930;53.514;55.904;2023-07-31T05:17:37;8.32;;;5.30;;
60054;SDS011;45930;53.514;55.904;2023-07-31T05:18:38;8.73;;;5.60;;
60054;SDS011;45930;53.514;55.904;2023-07-31T05:19:39;8.48;;;5.63;;
60054;SDS011;45930;53.514;55.904;2023-07-31T05:20:41;7.57;;;4.65;;
60054;SDS011;45930;53.514;55.904;2023-07-31T05:21:41;6.78;;;5.10;;
60054;SDS011;45930;53.514;55.904;2023-07-31T05:22:42;6.30;;;4.43;;
60054;SDS011;45930;53.514;55.904;2023-07-31T05:23:43;6.60;;;5.18;;
60054;SDS011;45930;53.514;55.904;2023-07-31T05:24:44;8.30;;;4.57;;
60054;SDS011;45930;53.514;55.904;2023-07-31T05:25:44;9.32;;;5.85;;
60054;SDS011;45930;53.514;55.904;2023-07-31T05:26:45;8.85;;;5.75;;
60054;SDS011;45930;53.514;55.904;2023-07-31T05:27:46;8.38;;;5.57;;
60054;SDS011;45930;53.514;55.904;2023-07-31T05:28:47;9.85;;;5.80;;
60054;SDS011;45930;53.514;55.904;2023-07-31T05:29:48;7.97;;;5.60;;
60054;SDS011;45930;53.514;55.904;2023-07-31T05:30:48;6.53;;;5.15;;
60054;SDS011;45930;53.514;55.904;2023-07-31T05:31:49;9.68;;;5.47;;
60054;SDS011;45930;53.514;55.904;2023-07-31T05:32:50;8.95;;;5.82;;
60054;SDS011;45930;53.514;55.904;2023-07-31T05:33:51;7.20;;;5.13;;
60054;SDS011;45930;53.514;55.904;2023-07-31T05:34:52;7.15;;;5.80;;
60054;SDS011;45930;53.514;55.904;2023-07-31T05:35:53;9.43;;;5.32;;
60054;SDS011;45930;53.514;55.904;2023-07-31T05:36:54;7.32;;;5.38;;
60054;SDS011;45930;53.514;55.904;2023-07-31T05:37:55;6.47;;;5.50;;
60054;SDS011;45930;53.514;55.904;2023-07-31T05:38:56;8.18;;;5.78;;
60054;SDS011;45930;53.514;55.904;2023-07-31T05:39:56;8.63;;;5.45;;
60054;SDS011;45930;53.514;55.904;2023-07-31T05:40:57;9.38;;;6.15;;
60054;SDS011;45930;53.514;55.904;2023-07-31T05:41:58;6.72;;;5.35;;
60054;SDS011;45930;53.514;55.904;2023-07-31T05:42:59;7.35;;;5.30;;
60054;SDS011;45930;53.514;55.904;2023-07-31T05:44:00;10.20;;;6.15;;
60054;SDS011;45930;53.514;55.904;2023-07-31T05:45:00;8.07;;;4.97;;
60054;SDS011;45930;53.514;55.904;2023-07-31T05:46:01;7.38;;;5.07;;
60054;SDS011;45930;53.514;55.904;2023-07-31T05:47:02;6.15;;;4.90;;
60054;SDS011;45930;53.514;55.904;2023-07-31T05:48:03;5.72;;;4.50;;
60054;SDS011;45930;53.514;55.904;2023-07-31T05:49:04;8.27;;;4.93;;
60054;SDS011;45930;53.514;55.904;2023-07-31T05:50:05;6.53;;;4.53;;
60054;SDS011;45930;53.514;55.904;2023-07-31T05:51:06;9.80;;;4.80;;
60054;SDS011;45930;53.514;55.904;2023-07-31T05:52:07;6.30;;;4.63;;
60054;SDS011;45930;53.514;55.904;2023-07-31T05:53:08;8.93;;;4.97;;
60054;SDS011;45930;53.514;55.904;2023-07-31T05:54:09;8.90;;;4.78;;
60054;SDS011;45930;53.514;55.904;2023-07-31T05:55:09;8.65;;;4.68;;
60054;SDS011;45930;53.514;55.904;2023-07-31T05:56:10;6.90;;;4.43;;
60054;SDS011;45930;53.514;55.904;2023-07-31T05:57:11;6.53;;;4.68;;
60054;SDS011;45930;53.514;55.904;2023-07-31T05:58:12;7.38;;;4.50;;
60054;SDS011;45930;53.514;55.904;2023-07-31T05:59:13;8.68;;;6.68;;
60054;SDS011;45930;53.514;55.904;2023-07-31T06:00:14;11.27;;;7.05;;
60054;SDS011;45930;53.514;55.904;2023-07-31T06:01:15;55.28;;;27.98;;
60054;SDS011;45930;53.514;55.904;2023-07-31T06:02:17;14.07;;;8.02;;
60054;SDS011;45930;53.514;55.904;2023-07-31T06:03:18;147.00;;;73.07;;
60054;SDS011;45930;53.514;55.904;2023-07-31T06:04:18;100.25;;;61.17;;